sensor_id;sensor_type;location;lat;lon;timestamp;P1;durP1;ratioP1;P2;durP2;ratioP2
22068;SDS011;13887;57.196;-2.100;2023-08-06T00:02:26;12.00;;;11.60;;
22068;SDS011;13887;57.196;-2.100;2023-08-06T00:04:53;11.80;;;11.40;;
22068;SDS011;13887;57.196;-2.100;2023-08-06T00:07:20;11.40;;;11.00;;
22068;SDS011;13887;57.196;-2.100;2023-08-06T00:09:47;12.03;;;11.63;;
22068;SDS011;13887;57.196;-2.100;2023-08-06T00:12:15;11.73;;;11.33;;
22068;SDS011;13887;57.196;-2.100;2023-08-06T00:14:42;11.87;;;11.47;;
22068;SDS011;13887;57.196;-2.100;2023-08-06T00:17:10;11.90;;;11.50;;
22068;SDS011;13887;57.196;-2.100;2023-08-06T00:19:37;11.90;;;11.50;;
22068;SDS011;13887;57.196;-2.100;2023-08-06T00:22:04;11.90;;;11.50;;
22068;SDS011;13887;57.196;-2.100;2023-08-06T00:24:32;12.13;;;11.73;;
22068;SDS011;13887;57.196;-2.100;2023-08-06T00:26:59;11.63;;;11.23;;
22068;SDS011;13887;57.196;-2.100;2023-08-06T00:29:26;11.93;;;11.53;;
22068;SDS011;13887;57.196;-2.100;2023-08-06T00:31:53;12.30;;;11.90;;
22068;SDS011;13887;57.196;-2.100;2023-08-06T00:34:21;11.80;;;11.40;;
22068;SDS011;13887;57.196;-2.100;2023-08-06T00:36:48;11.90;;;11.50;;
22068;SDS011;13887;57.196;-2.100;2023-08-06T00:39:15;11.67;;;11.27;;
22068;SDS011;13887;57.196;-2.100;2023-08-06T00:41:42;11.63;;;11.23;;
22068;SDS011;13887;57.196;-2.100;2023-08-06T00:44:09;12.03;;;11.63;;
22068;SDS011;13887;57.196;-2.100;2023-08-06T00:46:36;11.90;;;11.50;;
22068;SDS011;13887;57.196;-2.100;2023-08-06T00:49:03;11.80;;;11.40;;
22068;SDS011;13887;57.196;-2.100;2023-08-06T00:51:31;11.97;;;11.57;;
22068;SDS011;13887;57.196;-2.100;2023-08-06T00:53:59;11.87;;;11.47;;
22068;SDS011;13887;57.196;-2.100;2023-08-06T00:56:26;11.60;;;11.20;;
22068;SDS011;13887;57.196;-2.100;2023-08-06T00:58:54;11.87;;;11.47;;
22068;SDS011;13887;57.196;-2.100;2023-08-06T01:01:21;11.87;;;11.47;;
22068;SDS011;13887;57.196;-2.100;2023-08-06T01:03:48;11.73;;;11.33;;
22068;SDS011;13887;57.196;-2.100;2023-08-06T01:06:16;11.87;;;11.47;;
22068;SDS011;13887;57.196;-2.100;2023-08-06T01:08:56;11.73;;;11.33;;
22068;SDS011;13887;57.196;-2.100;2023-08-06T01:14:30;12.17;;;11.77;;
22068;SDS011;13887;57.196;-2.100;2023-08-06T01:17:04;12.43;;;12.03;;
22068;SDS011;13887;57.196;-2.100;2023-08-06T01:19:32;12.10;;;11.70;;
22068;SDS011;13887;57.196;-2.100;2023-08-06T01:21:59;11.90;;;11.50;;
22068;SDS011;13887;57.196;-2.100;2023-08-06T01:24:26;12.40;;;12.00;;
22068;SDS011;13887;57.196;-2.100;2023-08-06T01:27:54;12.20;;;11.80;;
22068;SDS011;13887;57.196;-2.100;2023-08-06T01:30:06;12.00;;;11.60;;
22068;SDS011;13887;57.196;-2.100;2023-08-06T01:32:44;12.20;;;11.80;;
22068;SDS011;13887;57.196;-2.100;2023-08-06T01:35:16;12.07;;;11.67;;
22068;SDS011;13887;57.196;-2.100;2023-08-06T01:37:46;12.17;;;11.77;;
22068;SDS011;13887;57.196;-2.100;2023-08-06T01:40:14;11.87;;;11.47;;
22068;SDS011;13887;57.196;-2.100;2023-08-06T01:42:41;12.20;;;11.80;;
22068;SDS011;13887;57.196;-2.100;2023-08-06T01:45:08;12.27;;;11.87;;
22068;SDS011;13887;57.196;-2.100;2023-08-06T01:47:36;12.07;;;11.67;;
22068;SDS011;13887;57.196;-2.100;2023-08-06T01:50:03;12.10;;;11.70;;
22068;SDS011;13887;57.196;-2.100;2023-08-06T01:52:31;11.87;;;11.47;;
22068;SDS011;13887;57.196;-2.100;2023-08-06T01:54:58;11.97;;;11.57;;
22068;SDS011;13887;57.196;-2.100;2023-08-06T01:57:25;11.90;;;11.50;;
22068;SDS011;13887;57.196;-2.100;2023-08-06T01:59:52;11.50;;;11.10;;
22068;SDS011;13887;57.196;-2.100;2023-08-06T02:02:20;11.83;;;11.43;;
22068;SDS011;13887;57.196;-2.100;2023-08-06T02:04:47;11.80;;;11.40;;
22068;SDS011;13887;57.196;-2.100;2023-08-06T02:07:14;12.23;;;11.83;;
22068;SDS011;13887;57.196;-2.100;2023-08-06T02:09:41;11.90;;;11.50;;
22068;SDS011;13887;57.196;-2.100;2023-08-06T02:12:08;11.97;;;11.57;;
22068;SDS011;13887;57.196;-2.100;2023-08-06T02:14:35;12.33;;;11.93;;
22068;SDS011;13887;57.196;-2.100;2023-08-06T02:17:02;11.77;;;11.37;;
22068;SDS011;13887;57.196;-2.100;2023-08-06T02:19:30;12.13;;;11.73;;
22068;SDS011;13887;57.196;-2.100;2023-08-06T02:21:57;11.70;;;11.30;;
22068;SDS011;13887;57.196;-2.100;2023-08-06T02:24:24;11.90;;;11.50;;
22068;SDS011;13887;57.196;-2.100;2023-08-06T02:26:51;11.67;;;11.27;;
22068;SDS011;13887;57.196;-2.100;2023-08-06T02:29:22;11.87;;;11.47;;
22068;SDS011;13887;57.196;-2.100;2023-08-06T02:31:49;11.70;;;11.30;;
22068;SDS011;13887;57.196;-2.100;2023-08-06T02:34:17;11.77;;;11.37;;
22068;SDS011;13887;57.196;-2.100;2023-08-06T02:36:45;12.37;;;11.97;;
22068;SDS011;13887;57.196;-2.100;2023-08-06T02:39:12;11.90;;;11.50;;
22068;SDS011;13887;57.196;-2.100;2023-08-06T02:41:39;11.50;;;11.10;;
22068;SDS011;13887;57.196;-2.100;2023-08-06T02:44:07;11.90;;;11.50;;
22068;SDS011;13887;57.196;-2.100;2023-08-06T02:46:34;11.77;;;11.37;;
22068;SDS011;13887;57.196;-2.100;2023-08-06T02:49:01;11.83;;;11.43;;
22068;SDS011;13887;57.196;-2.100;2023-08-06T02:51:28;11.87;;;11.47;;
22068;SDS011;13887;57.196;-2.100;2023-08-06T02:53:55;12.00;;;11.60;;
22068;SDS011;13887;57.196;-2.100;2023-08-06T02:56:22;11.70;;;11.30;;
22068;SDS011;13887;57.196;-2.100;2023-08-06T02:59:16;11.70;;;11.30;;
22068;SDS011;13887;57.196;-2.100;2023-08-06T03:01:53;11.40;;;11.00;;
22068;SDS011;13887;57.196;-2.100;2023-08-06T03:04:28;11.80;;;11.40;;
22068;SDS011;13887;57.196;-2.100;2023-08-06T03:06:55;11.67;;;11.27;;
22068;SDS011;13887;57.196;-2.100;2023-08-06T03:09:28;11.53;;;11.13;;
22068;SDS011;13887;57.196;-2.100;2023-08-06T03:11:56;11.43;;;11.03;;
22068;SDS011;13887;57.196;-2.100;2023-08-06T03:14:23;11.87;;;11.47;;
22068;SDS011;13887;57.196;-2.100;2023-08-06T03:16:51;11.77;;;11.37;;
22068;SDS011;13887;57.196;-2.100;2023-08-06T03:19:18;11.87;;;11.47;;
22068;SDS011;13887;57.196;-2.100;2023-08-06T03:21:46;11.87;;;11.47;;
22068;SDS011;13887;57.196;-2.100;2023-08-06T03:24:14;12.00;;;11.60;;
22068;SDS011;13887;57.196;-2.100;2023-08-06T03:26:42;11.40;;;11.00;;
22068;SDS011;13887;57.196;-2.100;2023-08-06T03:29:10;11.87;;;11.47;;
22068;SDS011;13887;57.196;-2.100;2023-08-06T03:31:37;12.07;;;11.67;;
22068;SDS011;13887;57.196;-2.100;2023-08-06T03:34:06;11.63;;;11.23;;
22068;SDS011;13887;57.196;-2.100;2023-08-06T03:36:34;11.73;;;11.33;;
22068;SDS011;13887;57.196;-2.100;2023-08-06T03:39:01;11.83;;;11.43;;
22068;SDS011;13887;57.196;-2.100;2023-08-06T03:41:30;11.93;;;11.53;;
22068;SDS011;13887;57.196;-2.100;2023-08-06T03:43:57;11.77;;;11.37;;
22068;SDS011;13887;57.196;-2.100;2023-08-06T03:46:26;11.40;;;11.00;;
22068;SDS011;13887;57.196;-2.100;2023-08-06T03:48:53;11.53;;;11.13;;
22068;SDS011;13887;57.196;-2.100;2023-08-06T03:51:20;12.00;;;11.60;;
22068;SDS011;13887;57.196;-2.100;2023-08-06T03:53:48;12.00;;;11.60;;
22068;SDS011;13887;57.196;-2.100;2023-08-06T03:56:15;11.70;;;11.30;;
22068;SDS011;13887;57.196;-2.100;2023-08-06T03:58:42;11.97;;;11.57;;
22068;SDS011;13887;57.196;-2.100;2023-08-06T04:01:09;11.50;;;11.10;;
22068;SDS011;13887;57.196;-2.100;2023-08-06T04:03:43;11.80;;;11.40;;
22068;SDS011;13887;57.196;-2.100;2023-08-06T04:06:10;11.97;;;11.57;;
22068;SDS011;13887;57.196;-2.100;2023-08-06T04:08:37;11.97;;;11.57;;
22068;SDS011;13887;57.196;-2.100;2023-08-06T04:11:06;11.90;;;11.50;;
22068;SDS011;13887;57.196;-2.100;2023-08-06T04:13:34;12.30;;;11.90;;
22068;SDS011;13887;57.196;-2.100;2023-08-06T04:16:04;12.30;;;11.90;;
22068;SDS011;13887;57.196;-2.100;2023-08-06T04:18:32;11.70;;;11.30;;
22068;SDS011;13887;57.196;-2.100;2023-08-06T04:21:01;12.30;;;11.90;;
22068;SDS011;13887;57.196;-2.100;2023-08-06T04:23:28;12.10;;;11.70;;
22068;SDS011;13887;57.196;-2.100;2023-08-06T04:25:59;11.93;;;11.53;;
22068;SDS011;13887;57.196;-2.100;2023-08-06T04:28:30;11.80;;;11.40;;
22068;SDS011;13887;57.196;-2.100;2023-08-06T04:30:58;12.03;;;11.63;;
22068;SDS011;13887;57.196;-2.100;2023-08-06T04:33:28;11.40;;;11.00;;
22068;SDS011;13887;57.196;-2.100;2023-08-06T04:35:58;12.20;;;11.80;;
22068;SDS011;13887;57.196;-2.100;2023-08-06T04:38:26;12.13;;;11.73;;
22068;SDS011;13887;57.196;-2.100;2023-08-06T04:40:54;11.83;;;11.43;;
22068;SDS011;13887;57.196;-2.100;2023-08-06T04:43:23;12.20;;;11.80;;
22068;SDS011;13887;57.196;-2.100;2023-08-06T04:45:51;12.17;;;11.77;;
22068;SDS011;13887;57.196;-2.100;2023-08-06T04:48:20;12.40;;;12.00;;
22068;SDS011;13887;57.196;-2.100;2023-08-06T04:50:48;11.90;;;11.50;;
22068;SDS011;13887;57.196;-2.100;2023-08-06T04:53:16;12.40;;;12.00;;
22068;SDS011;13887;57.196;-2.100;2023-08-06T04:55:43;12.30;;;11.90;;
22068;SDS011;13887;57.196;-2.100;2023-08-06T04:58:11;11.93;;;11.53;;
22068;SDS011;13887;57.196;-2.100;2023-08-06T05:00:39;12.40;;;12.00;;
22068;SDS011;13887;57.196;-2.100;2023-08-06T05:03:06;12.00;;;11.60;;
22068;SDS011;13887;57.196;-2.100;2023-08-06T05:05:34;12.53;;;12.13;;
22068;SDS011;13887;57.196;-2.100;2023-08-06T05:08:01;12.30;;;11.90;;
22068;SDS011;13887;57.196;-2.100;2023-08-06T05:10:28;12.40;;;12.00;;
22068;SDS011;13887;57.196;-2.100;2023-08-06T05:12:55;12.60;;;12.20;;
22068;SDS011;13887;57.196;-2.100;2023-08-06T05:15:23;12.30;;;11.90;;
22068;SDS011;13887;57.196;-2.100;2023-08-06T05:17:52;12.40;;;12.00;;
22068;SDS011;13887;57.196;-2.100;2023-08-06T05:20:20;12.20;;;11.80;;
22068;SDS011;13887;57.196;-2.100;2023-08-06T05:22:47;12.20;;;11.80;;
22068;SDS011;13887;57.196;-2.100;2023-08-06T05:25:14;12.40;;;12.00;;
22068;SDS011;13887;57.196;-2.100;2023-08-06T05:27:41;12.50;;;12.10;;
22068;SDS011;13887;57.196;-2.100;2023-08-06T05:30:09;12.37;;;11.97;;
22068;SDS011;13887;57.196;-2.100;2023-08-06T05:32:37;12.40;;;12.00;;
22068;SDS011;13887;57.196;-2.100;2023-08-06T05:35:04;12.20;;;11.80;;
22068;SDS011;13887;57.196;-2.100;2023-08-06T05:37:33;12.23;;;11.83;;
22068;SDS011;13887;57.196;-2.100;2023-08-06T05:40:00;12.60;;;12.20;;
22068;SDS011;13887;57.196;-2.100;2023-08-06T05:42:29;12.70;;;12.30;;
22068;SDS011;13887;57.196;-2.100;2023-08-06T05:44:56;12.80;;;12.40;;
22068;SDS011;13887;57.196;-2.100;2023-08-06T05:47:23;12.50;;;12.10;;
22068;SDS011;13887;57.196;-2.100;2023-08-06T05:49:50;12.47;;;12.07;;
22068;SDS011;13887;57.196;-2.100;2023-08-06T05:52:18;12.70;;;12.30;;
22068;SDS011;13887;57.196;-2.100;2023-08-06T05:54:45;12.80;;;12.40;;
22068;SDS011;13887;57.196;-2.100;2023-08-06T05:57:12;12.43;;;12.03;;
22068;SDS011;13887;57.196;-2.100;2023-08-06T05:59:40;12.23;;;11.83;;
22068;SDS011;13887;57.196;-2.100;2023-08-06T06:02:07;12.50;;;12.10;;
22068;SDS011;13887;57.196;-2.100;2023-08-06T06:04:34;12.40;;;12.00;;
22068;SDS011;13887;57.196;-2.100;2023-08-06T06:07:02;11.87;;;11.47;;
22068;SDS011;13887;57.196;-2.100;2023-08-06T06:09:29;12.50;;;12.10;;
22068;SDS011;13887;57.196;-2.100;2023-08-06T06:11:56;12.40;;;12.00;;
22068;SDS011;13887;57.196;-2.100;2023-08-06T06:14:23;11.97;;;11.57;;
22068;SDS011;13887;57.196;-2.100;2023-08-06T06:16:50;12.50;;;12.10;;
22068;SDS011;13887;57.196;-2.100;2023-08-06T06:19:17;12.00;;;11.60;;
22068;SDS011;13887;57.196;-2.100;2023-08-06T06:21:44;12.10;;;11.70;;
22068;SDS011;13887;57.196;-2.100;2023-08-06T06:24:11;12.60;;;12.20;;
22068;SDS011;13887;57.196;-2.100;2023-08-06T06:26:39;12.43;;;12.03;;
22068;SDS011;13887;57.196;-2.100;2023-08-06T06:29:06;12.43;;;12.03;;
22068;SDS011;13887;57.196;-2.100;2023-08-06T06:31:34;12.53;;;12.13;;
22068;SDS011;13887;57.196;-2.100;2023-08-06T06:34:01;12.77;;;12.37;;
22068;SDS011;13887;57.196;-2.100;2023-08-06T06:36:28;12.63;;;12.23;;
22068;SDS011;13887;57.196;-2.100;2023-08-06T06:38:55;12.33;;;11.93;;
22068;SDS011;13887;57.196;-2.100;2023-08-06T06:41:22;12.60;;;12.20;;
22068;SDS011;13887;57.196;-2.100;2023-08-06T06:43:50;12.20;;;11.80;;
22068;SDS011;13887;57.196;-2.100;2023-08-06T06:46:17;12.70;;;12.30;;
22068;SDS011;13887;57.196;-2.100;2023-08-06T06:48:44;12.30;;;11.90;;
22068;SDS011;13887;57.196;-2.100;2023-08-06T06:51:11;12.40;;;12.00;;
22068;SDS011;13887;57.196;-2.100;2023-08-06T06:53:39;12.23;;;11.83;;
22068;SDS011;13887;57.196;-2.100;2023-08-06T06:56:06;12.27;;;11.87;;
22068;SDS011;13887;57.196;-2.100;2023-08-06T06:58:33;12.10;;;11.70;;
22068;SDS011;13887;57.196;-2.100;2023-08-06T07:01:00;12.20;;;11.80;;
22068;SDS011;13887;57.196;-2.100;2023-08-06T07:03:27;12.47;;;12.07;;
22068;SDS011;13887;57.196;-2.100;2023-08-06T07:05:57;12.07;;;11.67;;
22068;SDS011;13887;57.196;-2.100;2023-08-06T07:08:28;12.17;;;11.77;;
22068;SDS011;13887;57.196;-2.100;2023-08-06T07:11:04;12.30;;;11.90;;
22068;SDS011;13887;57.196;-2.100;2023-08-06T07:13:36;12.03;;;11.63;;
22068;SDS011;13887;57.196;-2.100;2023-08-06T07:16:03;11.80;;;11.40;;
22068;SDS011;13887;57.196;-2.100;2023-08-06T07:18:30;12.50;;;12.10;;
22068;SDS011;13887;57.196;-2.100;2023-08-06T07:20:57;12.20;;;11.80;;
22068;SDS011;13887;57.196;-2.100;2023-08-06T07:23:25;12.50;;;12.10;;
22068;SDS011;13887;57.196;-2.100;2023-08-06T07:25:52;12.67;;;12.27;;
22068;SDS011;13887;57.196;-2.100;2023-08-06T07:28:20;13.07;;;12.67;;
22068;SDS011;13887;57.196;-2.100;2023-08-06T07:30:47;12.57;;;12.17;;
22068;SDS011;13887;57.196;-2.100;2023-08-06T07:33:14;13.37;;;12.97;;
22068;SDS011;13887;57.196;-2.100;2023-08-06T07:35:41;12.50;;;12.10;;
22068;SDS011;13887;57.196;-2.100;2023-08-06T07:38:10;12.50;;;12.10;;
22068;SDS011;13887;57.196;-2.100;2023-08-06T07:40:37;12.40;;;12.00;;
22068;SDS011;13887;57.196;-2.100;2023-08-06T07:43:05;12.37;;;11.97;;
22068;SDS011;13887;57.196;-2.100;2023-08-06T07:45:33;12.23;;;11.83;;
22068;SDS011;13887;57.196;-2.100;2023-08-06T07:48:02;12.10;;;11.70;;
22068;SDS011;13887;57.196;-2.100;2023-08-06T07:50:29;12.80;;;12.40;;
22068;SDS011;13887;57.196;-2.100;2023-08-06T07:52:56;12.70;;;12.30;;
22068;SDS011;13887;57.196;-2.100;2023-08-06T07:55:23;12.20;;;11.80;;
22068;SDS011;13887;57.196;-2.100;2023-08-06T07:57:52;12.63;;;12.23;;
22068;SDS011;13887;57.196;-2.100;2023-08-06T08:00:20;12.30;;;11.90;;
22068;SDS011;13887;57.196;-2.100;2023-08-06T08:02:48;12.50;;;12.10;;
22068;SDS011;13887;57.196;-2.100;2023-08-06T08:05:15;12.43;;;12.03;;
22068;SDS011;13887;57.196;-2.100;2023-08-06T08:07:42;12.27;;;11.87;;
22068;SDS011;13887;57.196;-2.100;2023-08-06T08:10:11;12.33;;;11.93;;
22068;SDS011;13887;57.196;-2.100;2023-08-06T08:12:38;11.93;;;11.53;;
22068;SDS011;13887;57.196;-2.100;2023-08-06T08:15:05;12.17;;;11.77;;
22068;SDS011;13887;57.196;-2.100;2023-08-06T08:17:33;12.30;;;11.90;;
22068;SDS011;13887;57.196;-2.100;2023-08-06T08:20:01;11.93;;;11.53;;
22068;SDS011;13887;57.196;-2.100;2023-08-06T08:22:29;12.10;;;11.70;;
22068;SDS011;13887;57.196;-2.100;2023-08-06T08:24:56;11.93;;;11.53;;
22068;SDS011;13887;57.196;-2.100;2023-08-06T08:27:23;11.67;;;11.27;;
22068;SDS011;13887;57.196;-2.100;2023-08-06T08:29:50;11.07;;;10.77;;
22068;SDS011;13887;57.196;-2.100;2023-08-06T08:32:17;11.53;;;11.13;;
22068;SDS011;13887;57.196;-2.100;2023-08-06T08:34:44;11.80;;;11.40;;
22068;SDS011;13887;57.196;-2.100;2023-08-06T08:37:11;11.80;;;11.40;;
22068;SDS011;13887;57.196;-2.100;2023-08-06T08:39:39;11.57;;;11.17;;
22068;SDS011;13887;57.196;-2.100;2023-08-06T08:42:07;12.17;;;11.77;;
22068;SDS011;13887;57.196;-2.100;2023-08-06T08:44:36;11.40;;;11.00;;
22068;SDS011;13887;57.196;-2.100;2023-08-06T08:47:06;11.63;;;11.23;;
22068;SDS011;13887;57.196;-2.100;2023-08-06T08:49:35;11.67;;;11.27;;
22068;SDS011;13887;57.196;-2.100;2023-08-06T08:52:04;11.63;;;11.23;;
22068;SDS011;13887;57.196;-2.100;2023-08-06T08:54:37;11.53;;;11.13;;
22068;SDS011;13887;57.196;-2.100;2023-08-06T08:57:05;11.50;;;11.10;;
22068;SDS011;13887;57.196;-2.100;2023-08-06T08:59:33;11.13;;;10.83;;
22068;SDS011;13887;57.196;-2.100;2023-08-06T09:02:00;11.40;;;11.00;;
22068;SDS011;13887;57.196;-2.100;2023-08-06T09:04:29;11.00;;;10.70;;
22068;SDS011;13887;57.196;-2.100;2023-08-06T09:07:02;10.93;;;10.63;;
22068;SDS011;13887;57.196;-2.100;2023-08-06T09:09:31;10.83;;;10.53;;
22068;SDS011;13887;57.196;-2.100;2023-08-06T09:12:01;11.20;;;10.90;;
22068;SDS011;13887;57.196;-2.100;2023-08-06T09:14:31;11.13;;;10.83;;
22068;SDS011;13887;57.196;-2.100;2023-08-06T09:16:58;11.70;;;11.30;;
22068;SDS011;13887;57.196;-2.100;2023-08-06T09:19:26;11.73;;;11.33;;
22068;SDS011;13887;57.196;-2.100;2023-08-06T09:21:55;11.83;;;11.43;;
22068;SDS011;13887;57.196;-2.100;2023-08-06T09:24:22;12.00;;;11.60;;
22068;SDS011;13887;57.196;-2.100;2023-08-06T09:26:50;11.17;;;10.87;;
22068;SDS011;13887;57.196;-2.100;2023-08-06T09:29:17;11.80;;;11.40;;
22068;SDS011;13887;57.196;-2.100;2023-08-06T09:31:45;11.97;;;11.57;;
22068;SDS011;13887;57.196;-2.100;2023-08-06T09:36:49;11.53;;;11.13;;
22068;SDS011;13887;57.196;-2.100;2023-08-06T09:39:26;11.57;;;11.17;;
22068;SDS011;13887;57.196;-2.100;2023-08-06T09:41:58;11.33;;;10.97;;
22068;SDS011;13887;57.196;-2.100;2023-08-06T09:44:29;11.40;;;11.00;;
22068;SDS011;13887;57.196;-2.100;2023-08-06T09:46:58;11.50;;;11.10;;
22068;SDS011;13887;57.196;-2.100;2023-08-06T09:51:59;11.90;;;11.50;;
22068;SDS011;13887;57.196;-2.100;2023-08-06T09:54:27;11.50;;;11.10;;
22068;SDS011;13887;57.196;-2.100;2023-08-06T09:56:55;11.33;;;10.93;;
22068;SDS011;13887;57.196;-2.100;2023-08-06T09:59:23;11.00;;;10.70;;
22068;SDS011;13887;57.196;-2.100;2023-08-06T10:01:51;11.57;;;11.17;;
22068;SDS011;13887;57.196;-2.100;2023-08-06T10:04:19;11.27;;;10.87;;
22068;SDS011;13887;57.196;-2.100;2023-08-06T10:06:52;10.87;;;10.57;;
22068;SDS011;13887;57.196;-2.100;2023-08-06T10:09:19;11.17;;;10.87;;
22068;SDS011;13887;57.196;-2.100;2023-08-06T10:11:49;11.23;;;10.90;;
22068;SDS011;13887;57.196;-2.100;2023-08-06T10:14:23;11.07;;;10.77;;
22068;SDS011;13887;57.196;-2.100;2023-08-06T10:16:54;11.57;;;11.17;;
22068;SDS011;13887;57.196;-2.100;2023-08-06T10:19:23;11.70;;;11.30;;
22068;SDS011;13887;57.196;-2.100;2023-08-06T10:24:50;11.63;;;11.23;;
22068;SDS011;13887;57.196;-2.100;2023-08-06T10:30:26;11.33;;;10.97;;
22068;SDS011;13887;57.196;-2.100;2023-08-06T10:32:56;11.70;;;11.30;;
22068;SDS011;13887;57.196;-2.100;2023-08-06T10:35:37;11.53;;;11.13;;
22068;SDS011;13887;57.196;-2.100;2023-08-06T10:38:21;11.40;;;11.00;;
22068;SDS011;13887;57.196;-2.100;2023-08-06T10:43:26;11.33;;;11.00;;
22068;SDS011;13887;57.196;-2.100;2023-08-06T10:45:55;11.20;;;10.90;;
22068;SDS011;13887;57.196;-2.100;2023-08-06T10:48:56;11.17;;;10.87;;
22068;SDS011;13887;57.196;-2.100;2023-08-06T10:51:16;11.77;;;11.37;;
22068;SDS011;13887;57.196;-2.100;2023-08-06T10:53:43;11.70;;;11.30;;
22068;SDS011;13887;57.196;-2.100;2023-08-06T10:56:22;10.70;;;10.40;;
22068;SDS011;13887;57.196;-2.100;2023-08-06T10:58:50;11.00;;;10.70;;
22068;SDS011;13887;57.196;-2.100;2023-08-06T11:01:18;11.03;;;10.73;;
22068;SDS011;13887;57.196;-2.100;2023-08-06T11:03:46;10.77;;;10.47;;
22068;SDS011;13887;57.196;-2.100;2023-08-06T11:06:19;10.63;;;10.33;;
22068;SDS011;13887;57.196;-2.100;2023-08-06T11:08:49;10.97;;;10.67;;
22068;SDS011;13887;57.196;-2.100;2023-08-06T11:11:17;10.77;;;10.47;;
22068;SDS011;13887;57.196;-2.100;2023-08-06T11:13:45;10.87;;;10.57;;
22068;SDS011;13887;57.196;-2.100;2023-08-06T11:16:17;10.07;;;9.77;;
22068;SDS011;13887;57.196;-2.100;2023-08-06T11:18:53;9.77;;;9.47;;
22068;SDS011;13887;57.196;-2.100;2023-08-06T11:21:23;10.17;;;9.87;;
22068;SDS011;13887;57.196;-2.100;2023-08-06T11:23:53;10.40;;;10.10;;
22068;SDS011;13887;57.196;-2.100;2023-08-06T11:26:21;10.43;;;10.13;;
22068;SDS011;13887;57.196;-2.100;2023-08-06T11:28:50;10.70;;;10.40;;
22068;SDS011;13887;57.196;-2.100;2023-08-06T11:31:20;10.57;;;10.27;;
22068;SDS011;13887;57.196;-2.100;2023-08-06T11:33:52;10.60;;;10.30;;
22068;SDS011;13887;57.196;-2.100;2023-08-06T11:36:32;10.67;;;10.37;;
22068;SDS011;13887;57.196;-2.100;2023-08-06T11:39:01;10.70;;;10.40;;
22068;SDS011;13887;57.196;-2.100;2023-08-06T11:41:29;10.67;;;10.37;;
22068;SDS011;13887;57.196;-2.100;2023-08-06T11:44:00;10.63;;;10.33;;
22068;SDS011;13887;57.196;-2.100;2023-08-06T11:46:29;10.57;;;10.27;;
22068;SDS011;13887;57.196;-2.100;2023-08-06T11:49:16;10.73;;;10.43;;
22068;SDS011;13887;57.196;-2.100;2023-08-06T11:51:44;10.90;;;10.60;;
22068;SDS011;13887;57.196;-2.100;2023-08-06T11:54:11;10.70;;;10.40;;
22068;SDS011;13887;57.196;-2.100;2023-08-06T11:56:39;10.70;;;10.40;;
22068;SDS011;13887;57.196;-2.100;2023-08-06T11:59:06;10.80;;;10.50;;
22068;SDS011;13887;57.196;-2.100;2023-08-06T12:01:34;11.10;;;10.80;;
22068;SDS011;13887;57.196;-2.100;2023-08-06T12:04:04;11.03;;;10.73;;
22068;SDS011;13887;57.196;-2.100;2023-08-06T12:06:41;10.47;;;10.17;;
22068;SDS011;13887;57.196;-2.100;2023-08-06T12:09:08;10.53;;;10.23;;
22068;SDS011;13887;57.196;-2.100;2023-08-06T12:11:36;11.00;;;10.70;;
22068;SDS011;13887;57.196;-2.100;2023-08-06T12:14:03;10.53;;;10.23;;
22068;SDS011;13887;57.196;-2.100;2023-08-06T12:16:30;10.60;;;10.30;;
22068;SDS011;13887;57.196;-2.100;2023-08-06T12:18:57;11.20;;;10.90;;
22068;SDS011;13887;57.196;-2.100;2023-08-06T12:21:25;11.43;;;11.07;;
22068;SDS011;13887;57.196;-2.100;2023-08-06T12:23:52;10.80;;;10.50;;
22068;SDS011;13887;57.196;-2.100;2023-08-06T12:26:19;11.13;;;10.83;;
22068;SDS011;13887;57.196;-2.100;2023-08-06T12:28:46;11.60;;;11.20;;
22068;SDS011;13887;57.196;-2.100;2023-08-06T12:31:13;11.83;;;11.43;;
22068;SDS011;13887;57.196;-2.100;2023-08-06T12:33:40;10.93;;;10.63;;
22068;SDS011;13887;57.196;-2.100;2023-08-06T12:36:07;11.00;;;10.70;;
22068;SDS011;13887;57.196;-2.100;2023-08-06T12:38:35;10.53;;;10.23;;
22068;SDS011;13887;57.196;-2.100;2023-08-06T12:41:02;11.57;;;11.17;;
22068;SDS011;13887;57.196;-2.100;2023-08-06T12:43:29;11.10;;;10.80;;
22068;SDS011;13887;57.196;-2.100;2023-08-06T12:45:56;10.73;;;10.43;;
22068;SDS011;13887;57.196;-2.100;2023-08-06T12:48:23;11.07;;;10.77;;
22068;SDS011;13887;57.196;-2.100;2023-08-06T12:50:50;10.90;;;10.60;;
22068;SDS011;13887;57.196;-2.100;2023-08-06T12:53:17;11.00;;;10.70;;
22068;SDS011;13887;57.196;-2.100;2023-08-06T12:55:50;11.03;;;10.73;;
22068;SDS011;13887;57.196;-2.100;2023-08-06T12:58:17;11.80;;;11.40;;
22068;SDS011;13887;57.196;-2.100;2023-08-06T13:00:44;10.83;;;10.53;;
22068;SDS011;13887;57.196;-2.100;2023-08-06T13:03:12;11.23;;;10.93;;
22068;SDS011;13887;57.196;-2.100;2023-08-06T13:05:39;11.03;;;10.73;;
22068;SDS011;13887;57.196;-2.100;2023-08-06T13:08:06;11.07;;;10.77;;
22068;SDS011;13887;57.196;-2.100;2023-08-06T13:10:33;10.73;;;10.43;;
22068;SDS011;13887;57.196;-2.100;2023-08-06T13:13:00;11.00;;;10.70;;
22068;SDS011;13887;57.196;-2.100;2023-08-06T13:15:28;10.90;;;10.60;;
22068;SDS011;13887;57.196;-2.100;2023-08-06T13:17:55;11.17;;;10.87;;
22068;SDS011;13887;57.196;-2.100;2023-08-06T13:20:22;10.67;;;10.37;;
22068;SDS011;13887;57.196;-2.100;2023-08-06T13:22:49;11.10;;;10.80;;
22068;SDS011;13887;57.196;-2.100;2023-08-06T13:25:19;11.20;;;10.90;;
22068;SDS011;13887;57.196;-2.100;2023-08-06T13:27:47;11.63;;;11.23;;
22068;SDS011;13887;57.196;-2.100;2023-08-06T13:30:14;11.40;;;11.03;;
22068;SDS011;13887;57.196;-2.100;2023-08-06T13:32:44;11.47;;;11.07;;
22068;SDS011;13887;57.196;-2.100;2023-08-06T13:35:11;10.93;;;10.63;;
22068;SDS011;13887;57.196;-2.100;2023-08-06T13:37:38;11.07;;;10.77;;
22068;SDS011;13887;57.196;-2.100;2023-08-06T13:40:06;11.10;;;10.80;;
22068;SDS011;13887;57.196;-2.100;2023-08-06T13:42:35;10.73;;;10.43;;
22068;SDS011;13887;57.196;-2.100;2023-08-06T13:45:02;10.87;;;10.57;;
22068;SDS011;13887;57.196;-2.100;2023-08-06T13:47:30;10.93;;;10.63;;
22068;SDS011;13887;57.196;-2.100;2023-08-06T13:49:57;10.47;;;10.17;;
22068;SDS011;13887;57.196;-2.100;2023-08-06T13:52:25;10.70;;;10.40;;
22068;SDS011;13887;57.196;-2.100;2023-08-06T13:54:53;10.87;;;10.57;;
22068;SDS011;13887;57.196;-2.100;2023-08-06T13:57:20;11.50;;;11.10;;
22068;SDS011;13887;57.196;-2.100;2023-08-06T13:59:47;10.77;;;10.47;;
22068;SDS011;13887;57.196;-2.100;2023-08-06T14:02:14;10.70;;;10.40;;
22068;SDS011;13887;57.196;-2.100;2023-08-06T14:04:41;10.83;;;10.53;;
22068;SDS011;13887;57.196;-2.100;2023-08-06T14:07:08;10.70;;;10.40;;
22068;SDS011;13887;57.196;-2.100;2023-08-06T14:09:36;10.93;;;10.63;;
22068;SDS011;13887;57.196;-2.100;2023-08-06T14:12:03;10.57;;;10.27;;
22068;SDS011;13887;57.196;-2.100;2023-08-06T14:14:30;10.83;;;10.53;;
22068;SDS011;13887;57.196;-2.100;2023-08-06T14:16:57;10.80;;;10.50;;
22068;SDS011;13887;57.196;-2.100;2023-08-06T14:19:25;10.63;;;10.33;;
22068;SDS011;13887;57.196;-2.100;2023-08-06T14:21:52;10.60;;;10.30;;
22068;SDS011;13887;57.196;-2.100;2023-08-06T14:24:19;11.23;;;10.93;;
22068;SDS011;13887;57.196;-2.100;2023-08-06T14:26:46;10.63;;;10.33;;
22068;SDS011;13887;57.196;-2.100;2023-08-06T14:29:13;10.90;;;10.60;;
22068;SDS011;13887;57.196;-2.100;2023-08-06T14:31:41;10.90;;;10.60;;
22068;SDS011;13887;57.196;-2.100;2023-08-06T14:34:08;10.93;;;10.63;;